Goodland, KS

7:33 AM MST on December 07, 2016 (GMT -0700)
Renner-Goodland Municipal | | Change Station

Elev 3655 ft 39.37 °N, 101.69 °W | Updated 10 minutes ago

Light Snow
Light Snow Mist
15 °F
Feels Like 1 °F
N
13
Wind Variable Wind from NNE

Today
High -- | Low -- °F
--% Chance of Precip.
Yesterday
High -- | Low -- °F
Precip. -- in
Pressure 30.17 in
Visibility 1.8 miles
Clouds Overcast 3100 ft
Windchill 1 °F
Dew Point 11 °F
Humidity 84%
Rainfall 0.03 in
Snow Depth Not available.
6:53 AM 4:23 PM
First Quarter, 53% visible
SPECI KGLD 071423Z AUTO 03011KT 1 3/4SM -SN BR OVC031 M09/M12 A3017 RMK AO2 PRESRR P0000 T10941117
Pressure 30.17 in
Visibility 1.8 miles
Clouds Overcast 3100 ft
Windchill 1 °F
Dew Point 11 °F
Humidity 84%
Rainfall 0.03 in
Snow Depth Not available.
6:53 AM 4:23 PM
First Quarter, 53% visible
SPECI KGLD 071423Z AUTO 03011KT 1 3/4SM -SN BR OVC031 M09/M12 A3017 RMK AO2 PRESRR P0000 T10941117

10-Day Weather Forecast

Almanac

Astronomy

Dec. 07, 2016 Rise Set
Actual Time
Civil Twilight
Nautical Twilight
Astronomical Twilight
Moon
Length of Visible Light
Length of Day
Tomorrow will be .
, % of the Moon is Illuminated

Today's Extremes

State Highs State Lows

Community

WunderPhotos

Upload Photos

1,956,116 photos uploaded!

WunderBlog® & News

Nearby

Air Quality

  Air Quality AQ Index Pollutant
Not available.

Snow Depth

Station Depth Elevation

Earthquake Activity

City Distance Mag. Time & Date
Minimum magnitude displayed is 2.5.

Coastal Water Temperatures

Place Temperature

Stations

Nearby Weather Stations

Station Location Temp. Windchill Dew Point Humidity Wind Precip. Elev Updated Type
                   

Watches & Warnings

There are currently no watches in effect.